createdAt,value
2024-01-16T00:02:10.476Z,97387.56
2024-01-16T00:04:41.858Z,97381.66
2024-01-16T00:07:08.465Z,97386.69
2024-01-16T00:09:35.631Z,97394.31
2024-01-16T00:12:03.777Z,97392.63
2024-01-16T00:14:30.478Z,97390.09
2024-01-16T00:16:57.035Z,97398.53
2024-01-16T00:19:23.554Z,97382.47
2024-01-16T00:21:50.065Z,97387.53
2024-01-16T00:24:16.591Z,97379.13
2024-01-16T00:26:43.600Z,97384.19
2024-01-16T00:29:10.941Z,97385.06
2024-01-16T00:31:37.540Z,97394.31
2024-01-16T00:34:04.582Z,97389.22
2024-01-16T00:36:31.785Z,97391.78
2024-01-16T00:38:58.205Z,97395.94
2024-01-16T00:41:24.735Z,97392.59
2024-01-16T00:43:51.234Z,97400.16
2024-01-16T00:46:17.753Z,97407.75
2024-01-16T00:48:44.347Z,97413.72
2024-01-16T00:51:10.925Z,97417.91
2024-01-16T00:53:44.885Z,97404.44
2024-01-16T00:56:11.887Z,97410.31
2024-01-16T00:58:39.008Z,97416.16
2024-01-16T01:01:05.892Z,97415.34
2024-01-16T01:03:32.416Z,97425.41
2024-01-16T01:05:59.426Z,97422.09
2024-01-16T01:08:26.102Z,97424.66
2024-01-16T01:10:52.887Z,97434.69
2024-01-16T01:13:19.390Z,97433.88
2024-01-16T01:15:46.033Z,97436.41
2024-01-16T01:18:12.610Z,97442.28
2024-01-16T01:20:39.242Z,97439.81
2024-01-16T01:23:05.757Z,97449.13
2024-01-16T01:25:32.247Z,97457.53
2024-01-16T01:27:58.699Z,97460.00
2024-01-16T01:30:25.444Z,97459.16
2024-01-16T01:32:52.203Z,97465.03
2024-01-16T01:35:20.795Z,97469.19
2024-01-16T01:37:47.410Z,97470.09
2024-01-16T01:40:15.587Z,97478.53
2024-01-16T01:42:43.143Z,97477.66
2024-01-16T01:45:12.787Z,97476.84
2024-01-16T01:47:41.218Z,97469.25
2024-01-16T01:50:09.357Z,97489.50
2024-01-16T01:52:40.172Z,97485.25
2024-01-16T01:55:11.526Z,97496.19
2024-01-16T01:57:38.598Z,97491.19
2024-01-16T02:00:06.115Z,97499.59
2024-01-16T02:02:33.319Z,97497.13
2024-01-16T02:05:00.174Z,97486.94
2024-01-16T02:07:26.837Z,97487.88
2024-01-16T02:09:53.626Z,97503.00
2024-01-16T02:12:21.844Z,97510.53
2024-01-16T02:14:49.654Z,97501.31
2024-01-16T02:17:16.216Z,97509.72
2024-01-16T02:19:42.804Z,97515.59
2024-01-16T02:22:14.797Z,97521.56
2024-01-16T02:24:41.287Z,97521.53
2024-01-16T02:27:08.505Z,97522.41
2024-01-16T02:29:36.140Z,97533.34
2024-01-16T02:32:04.532Z,97523.22
2024-01-16T02:34:31.081Z,97530.00
2024-01-16T02:36:57.599Z,97526.63
2024-01-16T02:39:24.144Z,97530.00
2024-01-16T02:41:50.657Z,97545.13
2024-01-16T02:44:17.362Z,97535.91
2024-01-16T02:46:43.842Z,97543.50
2024-01-16T02:49:10.415Z,97539.28
2024-01-16T02:51:36.855Z,97538.44
2024-01-16T02:54:03.389Z,97532.53
2024-01-16T02:56:29.881Z,97547.72
2024-01-16T02:58:56.464Z,97537.56
2024-01-16T03:01:22.940Z,97541.00
2024-01-16T03:03:50.047Z,97540.97
2024-01-16T03:06:24.646Z,97548.47
2024-01-16T03:08:52.399Z,97554.34
2024-01-16T03:11:18.984Z,97545.13
2024-01-16T03:13:46.212Z,97549.31
2024-01-16T03:16:12.686Z,97556.03
2024-01-16T03:18:39.579Z,97556.09
2024-01-16T03:21:09.555Z,97561.94
2024-01-16T03:23:36.091Z,97564.47
2024-01-16T03:26:02.646Z,97557.72
2024-01-16T03:28:29.084Z,97568.63
2024-01-16T03:30:55.895Z,97557.72
2024-01-16T03:33:22.628Z,97566.19
2024-01-16T03:35:49.362Z,97550.94
2024-01-16T03:38:15.908Z,97571.09
2024-01-16T03:40:42.410Z,97564.41
2024-01-16T03:43:09.151Z,97563.59
2024-01-16T03:45:35.659Z,97570.25
2024-01-16T03:48:04.819Z,97565.19
2024-01-16T03:50:31.516Z,97570.25
2024-01-16T03:52:58.065Z,97565.97
2024-01-16T03:55:24.535Z,97565.91
2024-01-16T03:57:52.352Z,97574.34
2024-01-16T04:00:18.946Z,97572.75
2024-01-16T04:02:45.514Z,97571.00
2024-01-16T04:05:12.153Z,97582.91
2024-01-16T04:07:38.700Z,97581.97
2024-01-16T04:10:07.290Z,97592.19
2024-01-16T04:12:33.774Z,97584.59
2024-01-16T04:15:00.500Z,97580.34
2024-01-16T04:17:27.027Z,97578.59
2024-01-16T04:19:53.487Z,97571.94
2024-01-16T04:22:19.981Z,97566.84
2024-01-16T04:24:46.491Z,97565.97
2024-01-16T04:27:13.266Z,97570.97
2024-01-16T04:29:39.833Z,97560.91
2024-01-16T04:32:06.314Z,97560.88
2024-01-16T04:34:33.210Z,97566.69
2024-01-16T04:36:59.645Z,97558.28
2024-01-16T04:39:26.129Z,97562.59
2024-01-16T04:41:52.630Z,97560.06
2024-01-16T04:44:19.160Z,97554.03
2024-01-16T04:46:45.639Z,97554.06
2024-01-16T04:49:12.233Z,97554.06
2024-01-16T04:51:38.928Z,97556.47
2024-01-16T04:54:05.398Z,97552.22
2024-01-16T04:56:31.982Z,97552.19
2024-01-16T04:58:58.700Z,97554.81
2024-01-16T05:01:26.273Z,97552.25
2024-01-16T05:03:52.791Z,97545.50
2024-01-16T05:06:19.460Z,97549.72
2024-01-16T05:08:46.029Z,97548.03
2024-01-16T05:11:12.541Z,97552.25
2024-01-16T05:13:39.053Z,97546.34
2024-01-16T05:16:06.870Z,97544.66
2024-01-16T05:18:36.341Z,97541.19
2024-01-16T05:21:03.572Z,97542.84
2024-01-16T05:23:30.297Z,97545.50
2024-01-16T05:25:56.931Z,97546.34
2024-01-16T05:28:23.885Z,97550.53
2024-01-16T05:30:50.413Z,97547.19
2024-01-16T05:33:17.297Z,97555.53
2024-01-16T05:35:43.972Z,97548.72
2024-01-16T05:38:13.561Z,97540.47
2024-01-16T05:40:41.070Z,97543.00
2024-01-16T05:43:07.651Z,97547.22
2024-01-16T05:45:34.273Z,97547.19
2024-01-16T05:48:01.055Z,97546.50
2024-01-16T05:50:27.816Z,97549.00
2024-01-16T05:52:54.603Z,97544.69
2024-01-16T05:55:22.630Z,97551.41
2024-01-16T05:57:49.225Z,97556.47
2024-01-16T06:00:16.100Z,97554.00
2024-01-16T06:02:42.637Z,97560.63
2024-01-16T06:05:09.297Z,97563.22
2024-01-16T06:07:35.858Z,97560.69
2024-01-16T06:10:03.588Z,97557.41
2024-01-16T06:12:31.088Z,97566.63
2024-01-16T06:14:59.146Z,97567.47
2024-01-16T06:17:25.790Z,97574.22
2024-01-16T06:19:52.892Z,97578.50
2024-01-16T06:22:19.420Z,97577.59
2024-01-16T06:24:45.880Z,97577.66
2024-01-16T06:27:15.253Z,97578.34
2024-01-16T06:29:41.708Z,97573.50
2024-01-16T06:32:08.523Z,97571.72
2024-01-16T06:34:35.185Z,97570.94
2024-01-16T06:37:01.748Z,97572.59
2024-01-16T06:39:28.293Z,97577.63
2024-01-16T06:41:54.887Z,97584.34
2024-01-16T06:44:21.576Z,97580.06
2024-01-16T06:46:48.103Z,97585.19
2024-01-16T06:49:14.873Z,97588.53
2024-01-16T06:51:41.391Z,97592.03
2024-01-16T06:54:08.126Z,97586.94
2024-01-16T06:56:34.892Z,97586.00
2024-01-16T06:59:01.876Z,97592.75
2024-01-16T07:01:28.403Z,97591.81
2024-01-16T07:03:55.029Z,97596.06
2024-01-16T07:06:21.792Z,97594.28
2024-01-16T07:08:48.431Z,97590.00
2024-01-16T07:11:15.158Z,97595.00
2024-01-16T07:13:42.145Z,97595.94
2024-01-16T07:16:12.396Z,97610.22
2024-01-16T07:18:40.191Z,97608.63
2024-01-16T07:21:19.614Z,97607.78
2024-01-16T07:23:46.192Z,97615.44
2024-01-16T07:26:13.185Z,97618.03
2024-01-16T07:28:40.040Z,97611.25
2024-01-16T07:31:07.137Z,97607.97
2024-01-16T07:33:33.837Z,97613.06
2024-01-16T07:36:00.626Z,97610.50
2024-01-16T07:38:27.417Z,97618.16
2024-01-16T07:40:53.968Z,97618.19
2024-01-16T07:43:20.442Z,97620.66
2024-01-16T07:45:46.972Z,97619.03
2024-01-16T07:48:13.494Z,97619.06
2024-01-16T07:50:40.050Z,97616.53
2024-01-16T07:53:07.106Z,97618.19
2024-01-16T07:55:33.687Z,97618.97
2024-01-16T07:58:00.233Z,97628.41
2024-01-16T08:00:28.546Z,97627.53
2024-01-16T08:02:55.285Z,97631.66
2024-01-16T08:05:26.138Z,97637.63
2024-01-16T08:07:53.673Z,97632.59
2024-01-16T08:10:20.407Z,97628.28
2024-01-16T08:12:47.132Z,97638.41
2024-01-16T08:15:13.586Z,97628.28
2024-01-16T08:17:40.609Z,97627.41
2024-01-16T08:20:11.040Z,97638.25
2024-01-16T08:22:38.881Z,97637.41
2024-01-16T08:25:09.261Z,97638.22
2024-01-16T08:27:35.923Z,97638.25
2024-01-16T08:30:02.399Z,97638.25
2024-01-16T08:32:28.921Z,97648.38
2024-01-16T08:34:55.499Z,97650.03
2024-01-16T08:37:22.006Z,97646.66
2024-01-16T08:39:48.708Z,97647.38
2024-01-16T08:42:15.297Z,97650.88
2024-01-16T08:44:41.914Z,97652.59
2024-01-16T08:47:08.502Z,97652.72
2024-01-16T08:49:35.046Z,97649.38
2024-01-16T08:52:01.860Z,97646.09
2024-01-16T08:54:28.278Z,97652.94
2024-01-16T08:56:54.911Z,97654.66
2024-01-16T08:59:21.473Z,97650.56
2024-01-16T09:01:48.006Z,97647.25
2024-01-16T09:04:14.591Z,97639.63
2024-01-16T09:06:41.221Z,97647.28
2024-01-16T09:09:07.808Z,97644.75
2024-01-16T09:11:35.027Z,97651.53
2024-01-16T09:14:04.398Z,97654.88
2024-01-16T09:16:31.601Z,97648.19
2024-01-16T09:18:58.311Z,97649.91
2024-01-16T09:21:24.816Z,97657.41
2024-01-16T09:23:51.575Z,97649.13
2024-01-16T09:26:18.391Z,97647.41
2024-01-16T09:28:45.474Z,97659.16
2024-01-16T09:31:12.039Z,97663.34
2024-01-16T09:33:38.709Z,97665.88
2024-01-16T09:36:05.498Z,97665.91
2024-01-16T09:38:32.414Z,97665.00
2024-01-16T09:41:00.130Z,97665.91
2024-01-16T09:43:28.708Z,97665.94
2024-01-16T09:45:58.890Z,97668.34
2024-01-16T09:48:28.922Z,97662.50
2024-01-16T09:50:55.723Z,97667.56
2024-01-16T09:53:22.331Z,97669.28
2024-01-16T09:55:51.370Z,97671.75
2024-01-16T09:58:24.840Z,97667.50
2024-01-16T10:00:53.915Z,97670.75
2024-01-16T10:03:21.838Z,97667.44
2024-01-16T10:05:50.180Z,97659.88
2024-01-16T10:08:16.757Z,97669.06
2024-01-16T10:10:48.786Z,97672.38
2024-01-16T10:13:18.551Z,97664.91
2024-01-16T10:15:45.305Z,97666.56
2024-01-16T10:18:24.851Z,97673.09
2024-01-16T10:20:51.554Z,97669.75
2024-01-16T10:23:28.496Z,97655.44
2024-01-16T10:26:08.948Z,97658.06
2024-01-16T10:28:36.438Z,97663.06
2024-01-16T10:31:07.365Z,97660.56
2024-01-16T10:33:37.091Z,97660.66
2024-01-16T10:36:13.056Z,97659.75
2024-01-16T10:38:45.252Z,97656.38
2024-01-16T10:41:13.097Z,97657.22
2024-01-16T10:43:40.327Z,97658.09
2024-01-16T10:46:17.202Z,97649.66
2024-01-16T10:48:45.812Z,97649.84
2024-01-16T10:51:16.109Z,97647.31
2024-01-16T10:53:47.783Z,97649.91
2024-01-16T10:56:14.762Z,97651.53
2024-01-16T10:58:43.047Z,97652.34
2024-01-16T11:01:16.108Z,97654.03
2024-01-16T11:03:50.996Z,97654.84
2024-01-16T11:06:19.488Z,97647.25
2024-01-16T11:08:50.670Z,97648.09
2024-01-16T11:11:18.566Z,97652.34
2024-01-16T11:13:47.577Z,97647.41
2024-01-16T11:16:14.399Z,97643.97
2024-01-16T11:18:41.226Z,97645.75
2024-01-16T11:21:16.864Z,97641.53
2024-01-16T11:23:47.390Z,97643.97
2024-01-16T11:26:34.936Z,97639.72
2024-01-16T11:29:22.115Z,97637.19
2024-01-16T11:31:48.607Z,97631.31
2024-01-16T11:34:15.332Z,97639.66
2024-01-16T11:36:52.883Z,97628.75
2024-01-16T11:39:21.348Z,97635.47
2024-01-16T11:41:54.347Z,97635.53
2024-01-16T11:44:48.564Z,97633.81
2024-01-16T11:47:22.436Z,97624.53
2024-01-16T11:49:50.091Z,97638.84
2024-01-16T11:52:43.473Z,97638.84
2024-01-16T11:55:29.368Z,97632.09
2024-01-16T11:58:26.382Z,97628.75
2024-01-16T12:00:53.531Z,97616.94
2024-01-16T12:03:31.560Z,97616.13
2024-01-16T12:06:03.353Z,97612.84
2024-01-16T12:08:30.577Z,97607.75
2024-01-16T12:10:57.652Z,97602.69
2024-01-16T12:13:24.216Z,97606.97
2024-01-16T12:16:00.965Z,97596.91
2024-01-16T12:18:37.486Z,97596.06
2024-01-16T12:21:15.745Z,97590.16
2024-01-16T12:23:49.555Z,97585.16
2024-01-16T12:26:23.581Z,97585.16
2024-01-16T12:28:57.681Z,97573.38
2024-01-16T12:31:27.547Z,97570.03
2024-01-16T12:34:01.589Z,97564.09
2024-01-16T12:36:30.634Z,97556.47
2024-01-16T12:38:57.701Z,97559.00
2024-01-16T12:41:32.508Z,97554.78
2024-01-16T12:44:11.664Z,97556.47
2024-01-16T12:46:42.410Z,97537.00
2024-01-16T12:49:12.566Z,97532.75
2024-01-16T12:51:39.396Z,97532.78
2024-01-16T12:54:16.809Z,97534.50
2024-01-16T12:56:43.616Z,97532.78
2024-01-16T12:59:14.238Z,97531.13
2024-01-16T13:01:47.044Z,97534.53
2024-01-16T13:04:17.043Z,97535.34
2024-01-16T13:06:47.681Z,97533.69
2024-01-16T13:09:18.025Z,97533.69
2024-01-16T13:12:02.082Z,97540.44
2024-01-16T13:14:28.630Z,97535.38
2024-01-16T13:16:58.373Z,97525.22
2024-01-16T13:19:25.414Z,97523.53
2024-01-16T13:21:52.409Z,97520.16
2024-01-16T13:24:22.395Z,97519.31
2024-01-16T13:26:49.075Z,97508.34
2024-01-16T13:29:16.537Z,97505.81
2024-01-16T13:31:43.265Z,97511.69
2024-01-16T13:34:10.226Z,97515.09
2024-01-16T13:39:13.949Z,97513.41
2024-01-16T13:41:41.091Z,97510.88
2024-01-16T13:44:07.595Z,97492.28
2024-01-16T13:46:49.252Z,97499.88
2024-01-16T13:49:21.102Z,97495.69
2024-01-16T13:51:47.797Z,97500.75
2024-01-16T13:54:14.618Z,97493.13
2024-01-16T13:56:58.222Z,97487.25
2024-01-16T13:59:27.590Z,97490.59
2024-01-16T14:01:54.081Z,97497.38
2024-01-16T14:04:21.824Z,97493.97
2024-01-16T14:07:03.335Z,97493.97
2024-01-16T14:09:36.585Z,97486.38
2024-01-16T14:12:03.312Z,97478.78
2024-01-16T14:14:29.945Z,97477.09
2024-01-16T14:17:01.319Z,97483.84
2024-01-16T14:19:30.998Z,97486.38
2024-01-16T14:21:57.774Z,97483.00
2024-01-16T14:24:24.225Z,97482.16
2024-01-16T14:26:50.771Z,97480.47
2024-01-16T14:29:17.323Z,97479.63
2024-01-16T14:31:44.321Z,97470.31
2024-01-16T14:34:16.612Z,97466.09
2024-01-16T14:36:43.347Z,97471.97
2024-01-16T14:39:14.782Z,97470.28
2024-01-16T14:41:42.503Z,97466.06
2024-01-16T14:44:10.921Z,97475.34
2024-01-16T14:46:37.712Z,97470.28
2024-01-16T14:49:04.594Z,97467.75
2024-01-16T14:51:31.282Z,97459.28
2024-01-16T14:53:57.949Z,97461.84
2024-01-16T14:56:25.439Z,97466.03
2024-01-16T14:58:52.096Z,97461.84
2024-01-16T15:01:19.277Z,97460.16
2024-01-16T15:03:45.910Z,97456.75
2024-01-16T15:06:14.100Z,97458.44
2024-01-16T15:08:40.790Z,97466.03
2024-01-16T15:11:08.589Z,97471.97
2024-01-16T15:13:35.171Z,97460.97
2024-01-16T15:16:01.778Z,97464.38
2024-01-16T15:18:29.252Z,97469.44
2024-01-16T15:20:56.601Z,97466.03
2024-01-16T15:23:24.327Z,97463.50
2024-01-16T15:25:50.972Z,97470.22
2024-01-16T15:28:17.489Z,97468.56
2024-01-16T15:30:46.097Z,97471.91
2024-01-16T15:33:12.859Z,97471.88
2024-01-16T15:35:39.502Z,97467.66
2024-01-16T15:38:05.998Z,97467.66
2024-01-16T15:40:32.606Z,97469.34
2024-01-16T15:43:00.669Z,97466.78
2024-01-16T15:45:28.002Z,97463.41
2024-01-16T15:47:55.392Z,97475.13
2024-01-16T15:50:22.352Z,97468.34
2024-01-16T15:52:50.488Z,97481.00
2024-01-16T15:55:17.558Z,97469.19
2024-01-16T15:57:44.600Z,97476.72
2024-01-16T16:00:11.584Z,97476.72
2024-01-16T16:02:39.476Z,97476.69
2024-01-16T16:05:06.847Z,97469.94
2024-01-16T16:07:33.672Z,97478.41
2024-01-16T16:10:00.179Z,97472.44
2024-01-16T16:12:26.919Z,97476.66
2024-01-16T16:14:53.549Z,97475.78
2024-01-16T16:17:20.208Z,97491.66
2024-01-16T16:19:47.745Z,97479.84
2024-01-16T16:22:15.104Z,97487.41
2024-01-16T16:24:42.596Z,97481.41
2024-01-16T16:27:26.812Z,97475.50
2024-01-16T16:29:57.105Z,97478.84
2024-01-16T16:32:24.280Z,97478.78
2024-01-16T16:34:50.944Z,97477.84
2024-01-16T16:37:18.096Z,97472.75
2024-01-16T16:39:44.740Z,97472.75
2024-01-16T16:42:12.675Z,97473.56
2024-01-16T16:44:39.617Z,97467.69
2024-01-16T16:47:06.251Z,97466.03
2024-01-16T16:49:32.838Z,97466.78
2024-01-16T16:51:59.441Z,97465.91
2024-01-16T16:54:27.076Z,97470.00
2024-01-16T16:56:55.812Z,97459.75
2024-01-16T16:59:23.141Z,97453.81
2024-01-16T17:01:49.708Z,97463.06
2024-01-16T17:04:16.255Z,97463.88
2024-01-16T17:06:42.961Z,97476.53
2024-01-16T17:09:12.985Z,97476.56
2024-01-16T17:11:40.448Z,97484.13
2024-01-16T17:14:07.059Z,97491.63
2024-01-16T17:16:33.510Z,97491.72
2024-01-16T17:19:00.174Z,97490.09
2024-01-16T17:21:26.778Z,97492.63
2024-01-16T17:23:54.116Z,97490.94
2024-01-16T17:26:20.936Z,97490.13
2024-01-16T17:28:47.498Z,97493.47
2024-01-16T17:31:14.111Z,97502.72
2024-01-16T17:33:40.790Z,97494.28
2024-01-16T17:36:11.493Z,97496.78
2024-01-16T17:38:38.437Z,97506.81
2024-01-16T17:41:05.865Z,97500.91
2024-01-16T17:43:32.610Z,97505.09
2024-01-16T17:45:59.405Z,97509.28
2024-01-16T17:48:26.872Z,97505.78
2024-01-16T17:50:53.796Z,97500.69
2024-01-16T17:53:20.522Z,97498.03
2024-01-16T17:55:47.592Z,97517.19
2024-01-16T17:58:16.753Z,97515.44
2024-01-16T18:00:43.577Z,97517.91
2024-01-16T18:03:24.133Z,97512.72
2024-01-16T18:06:00.410Z,97510.06
2024-01-16T18:08:27.206Z,97509.09
2024-01-16T18:10:55.631Z,97503.19
2024-01-16T18:13:23.176Z,97509.63
2024-01-16T18:15:49.754Z,97509.63
2024-01-16T18:18:17.247Z,97503.75
2024-01-16T18:20:44.007Z,97503.75
2024-01-16T18:23:11.008Z,97507.88
2024-01-16T18:25:37.696Z,97506.22
2024-01-16T18:28:05.303Z,97505.31
2024-01-16T18:30:34.343Z,97500.94
2024-01-16T18:33:02.154Z,97490.13
2024-01-16T18:35:29.635Z,97482.69
2024-01-16T18:37:56.520Z,97476.91
2024-01-16T18:40:24.542Z,97476.97
2024-01-16T18:42:51.439Z,97477.00
2024-01-16T18:45:19.188Z,97467.94
2024-01-16T18:47:46.166Z,97466.44
2024-01-16T18:50:13.830Z,97462.97
2024-01-16T18:52:41.381Z,97461.19
2024-01-16T18:55:12.153Z,97447.72
2024-01-16T18:57:40.597Z,97456.91
2024-01-16T19:00:14.907Z,97451.81
2024-01-16T19:02:43.249Z,97446.69
2024-01-16T19:05:14.410Z,97439.03
2024-01-16T19:07:42.763Z,97428.88
2024-01-16T19:10:17.478Z,97440.47
2024-01-16T19:12:47.223Z,97434.44
2024-01-16T19:15:21.281Z,97427.53
2024-01-16T19:17:48.940Z,97429.13
2024-01-16T19:20:15.915Z,97427.34
2024-01-16T19:22:43.495Z,97420.53
2024-01-16T19:25:12.235Z,97413.75
2024-01-16T19:27:42.966Z,97423.00
2024-01-16T19:30:14.887Z,97418.63
2024-01-16T19:32:43.648Z,97420.25
2024-01-16T19:35:11.463Z,97423.56
2024-01-16T19:37:38.134Z,97420.06
2024-01-16T19:40:08.595Z,97412.56
2024-01-16T19:42:35.979Z,97400.81
2024-01-16T19:45:02.734Z,97403.22
2024-01-16T19:47:31.398Z,97404.03
2024-01-16T19:49:58.378Z,97404.00
2024-01-16T19:52:24.852Z,97403.94
2024-01-16T19:54:51.545Z,97411.41
2024-01-16T19:57:17.975Z,97405.31
2024-01-16T19:59:44.530Z,97402.59
2024-01-16T20:02:11.025Z,97402.34
2024-01-16T20:04:38.081Z,97395.56
2024-01-16T20:07:04.831Z,97402.28
2024-01-16T20:09:31.270Z,97399.66
2024-01-16T20:12:01.361Z,97399.78
2024-01-16T20:14:28.381Z,97396.50
2024-01-16T20:16:54.908Z,97395.69
2024-01-16T20:19:21.844Z,97385.03
2024-01-16T20:21:48.397Z,97389.28
2024-01-16T20:24:14.962Z,97378.31
2024-01-16T20:26:42.202Z,97370.75
2024-01-16T20:29:11.461Z,97380.84
2024-01-16T20:31:39.571Z,97371.72
2024-01-16T20:34:06.109Z,97369.34
2024-01-16T20:36:32.736Z,97365.28
2024-01-16T20:38:59.246Z,97354.47
2024-01-16T20:41:26.222Z,97356.25
2024-01-16T20:43:52.817Z,97353.00
2024-01-16T20:46:19.319Z,97351.47
2024-01-16T20:48:47.353Z,97351.50
2024-01-16T20:51:16.104Z,97346.50
2024-01-16T20:53:42.824Z,97348.16
2024-01-16T20:56:10.545Z,97349.63
2024-01-16T20:58:38.854Z,97347.13
2024-01-16T21:01:06.558Z,97337.91
2024-01-16T21:03:33.168Z,97344.84
2024-01-16T21:06:00.045Z,97339.81
2024-01-16T21:08:27.581Z,97341.59
2024-01-16T21:10:54.142Z,97332.41
2024-01-16T21:13:24.123Z,97338.38
2024-01-16T21:15:50.596Z,97329.94
2024-01-16T21:18:17.618Z,97334.22
2024-01-16T21:20:45.252Z,97325.75
2024-01-16T21:23:12.198Z,97315.66
2024-01-16T21:25:38.721Z,97308.84
2024-01-16T21:28:05.458Z,97313.84
2024-01-16T21:30:31.952Z,97310.47
2024-01-16T21:32:58.846Z,97306.16
2024-01-16T21:35:25.429Z,97298.66
2024-01-16T21:37:51.968Z,97301.16
2024-01-16T21:40:18.442Z,97299.47
2024-01-16T21:42:44.953Z,97292.81
2024-01-16T21:45:11.538Z,97288.63
2024-01-16T21:47:38.224Z,97294.53
2024-01-16T21:50:07.535Z,97302.78
2024-01-16T21:52:34.730Z,97297.75
2024-01-16T21:55:02.477Z,97292.88
2024-01-16T21:57:31.540Z,97292.97
2024-01-16T21:59:58.492Z,97289.53
2024-01-16T22:02:25.070Z,97289.50
2024-01-16T22:04:51.755Z,97290.47
2024-01-16T22:07:18.701Z,97293.75
2024-01-16T22:09:45.276Z,97289.50
2024-01-16T22:12:11.991Z,97281.97
2024-01-16T22:14:39.091Z,97277.75
2024-01-16T22:17:05.881Z,97276.03
2024-01-16T22:19:32.598Z,97276.09
2024-01-16T22:21:59.121Z,97271.84
2024-01-16T22:24:26.732Z,97261.72
2024-01-16T22:26:53.222Z,97260.97
2024-01-16T22:29:19.809Z,97264.31
2024-01-16T22:31:46.964Z,97248.50
2024-01-16T22:34:13.784Z,97242.59
2024-01-16T22:36:43.779Z,97231.69
2024-01-16T22:39:17.123Z,97234.16
2024-01-16T22:41:48.339Z,97230.81
2024-01-16T22:44:15.005Z,97221.63
2024-01-16T22:46:41.463Z,97217.19
2024-01-16T22:49:08.658Z,97209.75
2024-01-16T22:51:37.649Z,97208.03
2024-01-16T22:54:05.271Z,97200.41
2024-01-16T22:56:32.875Z,97209.63
2024-01-16T22:59:03.743Z,97207.94
2024-01-16T23:01:31.153Z,97196.97
2024-01-16T23:03:58.706Z,97197.81
2024-01-16T23:06:29.099Z,97191.06
2024-01-16T23:08:56.632Z,97185.19
2024-01-16T23:11:24.218Z,97176.00
2024-01-16T23:13:51.935Z,97168.47
2024-01-16T23:16:18.864Z,97171.03
2024-01-16T23:18:46.787Z,97170.09
2024-01-16T23:21:14.620Z,97165.13
2024-01-16T23:23:49.169Z,97167.59
2024-01-16T23:26:15.714Z,97162.59
2024-01-16T23:28:42.224Z,97157.56
2024-01-16T23:31:09.942Z,97153.31
2024-01-16T23:33:36.641Z,97148.31
2024-01-16T23:36:03.391Z,97150.00
2024-01-16T23:38:29.993Z,97144.88
2024-01-16T23:40:57.576Z,97139.91
2024-01-16T23:43:24.101Z,97134.94
2024-01-16T23:45:51.378Z,97130.00
2024-01-16T23:48:18.150Z,97117.50
2024-01-16T23:50:44.916Z,97114.16
2024-01-16T23:53:11.749Z,97111.84
2024-01-16T23:55:39.498Z,97106.78
2024-01-16T23:58:06.147Z,97105.88
